Time;durP1;ratioP1;P1;durP2;ratioP2;P2;SDS_P1;SDS_P2;PMS_P1;PMS_P2;Temp;Humidity;BMP_temperature;BMP_pressure;BME280_temperature;BME280_humidity;BME280_pressure;Samples;Min_cycle;Max_cycle;Signal;HPM_P1;HPM_P2
2021/07/30 00:02:14;;;;;;;3.05;2.00;;;26.10;53.80;;;;;;5014824;28;20081;-63
2021/07/30 00:04:40;;;;;;;2.50;1.63;;;26.10;53.80;;;;;;5019834;28;20590;-63
2021/07/30 00:07:05;;;;;;;4.05;1.73;;;26.10;53.80;;;;;;5022493;28;20017;-65
2021/07/30 00:09:31;;;;;;;2.70;1.75;;;26.10;53.80;;;;;;5027175;28;20063;-64
2021/07/30 00:11:57;;;;;;;3.35;2.17;;;26.00;53.80;;;;;;5017124;28;20045;-64
2021/07/30 00:14:22;;;;;;;4.47;1.88;;;26.00;53.70;;;;;;5019783;28;20041;-63
2021/07/30 00:16:48;;;;;;;3.28;1.92;;;26.10;53.80;;;;;;5022239;28;20397;-61
2021/07/30 00:19:14;;;;;;;3.50;1.95;;;26.00;53.70;;;;;;5007174;28;20095;-61
2021/07/30 00:21:39;;;;;;;2.45;1.60;;;26.00;53.80;;;;;;5024322;28;20120;-65
2021/07/30 00:24:05;;;;;;;2.67;1.60;;;26.00;53.80;;;;;;5019157;28;20060;-62
2021/07/30 00:26:31;;;;;;;2.47;1.70;;;26.00;53.80;;;;;;5020698;28;20029;-64
2021/07/30 00:28:56;;;;;;;2.25;1.58;;;26.00;53.80;;;;;;5015581;28;20033;-61
2021/07/30 00:31:22;;;;;;;3.13;1.73;;;26.00;53.80;;;;;;5025781;28;20121;-60
2021/07/30 00:33:47;;;;;;;3.03;1.98;;;26.00;53.80;;;;;;5024546;28;20137;-62
2021/07/30 00:36:13;;;;;;;3.22;1.98;;;26.00;53.80;;;;;;5025574;28;20024;-62
2021/07/30 00:38:39;;;;;;;2.95;1.83;;;26.00;53.80;;;;;;5024800;28;20029;-64
2021/07/30 00:41:04;;;;;;;3.33;1.90;;;26.00;53.80;;;;;;5018034;28;20437;-66
2021/07/30 00:43:30;;;;;;;2.60;1.77;;;26.00;53.80;;;;;;5024280;28;20045;-62
2021/07/30 00:45:57;;;;;;;2.75;1.90;;;26.00;53.80;;;;;;5025330;28;20065;-64
2021/07/30 00:48:24;;;;;;;3.00;1.80;;;26.00;53.80;;;;;;5015833;28;20021;-66
2021/07/30 00:50:51;;;;;;;2.80;1.83;;;26.00;53.80;;;;;;5015811;28;20064;-65
2021/07/30 00:53:18;;;;;;;3.17;1.90;;;26.00;53.80;;;;;;5014388;28;20133;-64
2021/07/30 00:55:44;;;;;;;2.72;1.67;;;25.90;53.80;;;;;;5031130;28;20029;-62
2021/07/30 00:58:11;;;;;;;3.00;1.88;;;25.90;53.70;;;;;;5008321;28;20038;-63
2021/07/30 01:00:37;;;;;;;2.40;1.50;;;25.90;53.70;;;;;;5020315;28;20060;-62
2021/07/30 01:03:03;;;;;;;2.60;1.77;;;25.90;53.80;;;;;;5023389;28;20452;-65
2021/07/30 01:05:30;;;;;;;2.50;1.92;;;25.90;53.70;;;;;;5025205;28;20060;-63
2021/07/30 01:08:00;;;;;;;3.10;2.10;;;25.90;53.70;;;;;;5020448;28;20053;-62
2021/07/30 01:10:26;;;;;;;2.78;1.75;;;25.90;53.80;;;;;;5007512;28;20121;-63
2021/07/30 01:12:53;;;;;;;2.58;1.80;;;25.90;53.80;;;;;;5029164;28;20105;-61
2021/07/30 01:15:19;;;;;;;2.45;1.70;;;25.90;53.70;;;;;;5014619;28;20076;-65
2021/07/30 01:17:44;;;;;;;2.60;1.70;;;25.90;53.70;;;;;;5028630;28;20140;-63
2021/07/30 01:20:11;;;;;;;2.70;1.85;;;25.90;53.70;;;;;;5017592;28;20124;-61
2021/07/30 01:22:53;;;;;;;2.53;1.75;;;25.90;53.80;;;;;;5013911;28;20113;-62
2021/07/30 01:25:20;;;;;;;2.90;1.90;;;25.90;53.70;;;;;;5030128;28;20113;-62
2021/07/30 01:27:47;;;;;;;2.72;1.73;;;25.80;53.70;;;;;;5027628;28;20570;-61
2021/07/30 01:30:14;;;;;;;2.35;1.85;;;25.90;53.80;;;;;;5015656;28;20018;-67
2021/07/30 01:32:40;;;;;;;3.05;1.90;;;25.80;53.80;;;;;;5019193;28;20033;-61
2021/07/30 01:35:06;;;;;;;2.45;1.70;;;25.80;53.70;;;;;;5010724;28;20362;-64
2021/07/30 01:37:32;;;;;;;2.75;1.80;;;25.80;53.70;;;;;;5013282;28;20345;-62
2021/07/30 01:39:58;;;;;;;2.88;1.60;;;25.90;53.80;;;;;;5017569;28;20439;-61
2021/07/30 01:42:24;;;;;;;2.40;1.70;;;25.80;53.70;;;;;;5021119;28;20095;-60
2021/07/30 01:44:51;;;;;;;2.53;1.65;;;25.80;53.70;;;;;;5010960;28;20082;-61
2021/07/30 01:47:17;;;;;;;2.45;1.60;;;25.80;53.80;;;;;;5026109;28;20433;-61
2021/07/30 01:49:43;;;;;;;2.47;1.60;;;25.80;53.70;;;;;;5029072;28;20505;-61
2021/07/30 01:52:08;;;;;;;3.47;1.65;;;25.80;53.80;;;;;;5018791;28;20112;-61
2021/07/30 01:54:34;;;;;;;2.47;1.60;;;25.80;53.80;;;;;;5008463;28;20468;-62
2021/07/30 01:56:59;;;;;;;2.47;1.70;;;25.80;53.80;;;;;;5039917;28;20029;-63
2021/07/30 01:59:25;;;;;;;2.63;1.70;;;25.70;53.70;;;;;;5026122;28;20037;-61
2021/07/30 02:01:50;;;;;;;2.40;1.55;;;25.80;53.80;;;;;;5033995;28;20064;-61
2021/07/30 02:04:18;;;;;;;2.40;1.60;;;25.70;53.70;;;;;;5027973;28;20041;-63
2021/07/30 02:06:44;;;;;;;2.67;1.70;;;25.80;53.80;;;;;;5024095;28;20026;-65
2021/07/30 02:09:10;;;;;;;2.65;1.65;;;25.70;53.70;;;;;;5015905;28;20224;-60
2021/07/30 02:11:36;;;;;;;2.50;1.60;;;25.70;53.80;;;;;;5023908;28;20140;-63
2021/07/30 02:14:16;;;;;;;2.20;1.70;;;25.70;53.70;;;;;;5024202;28;20132;-63
2021/07/30 02:16:47;;;;;;;2.22;1.70;;;25.70;53.80;;;;;;5009794;28;20057;-61
2021/07/30 02:19:13;;;;;;;2.55;1.67;;;25.70;53.80;;;;;;5013005;28;20036;-63
2021/07/30 02:21:39;;;;;;;2.63;1.70;;;25.70;53.80;;;;;;5019331;28;20076;-64
2021/07/30 02:24:06;;;;;;;2.00;1.50;;;25.70;53.80;;;;;;5015843;28;20421;-63
2021/07/30 02:26:31;;;;;;;2.75;1.80;;;25.70;53.80;;;;;;5021850;28;20033;-61
2021/07/30 02:28:57;;;;;;;2.92;1.58;;;25.70;53.90;;;;;;5027055;28;20030;-61
2021/07/30 02:31:23;;;;;;;2.28;1.73;;;25.70;53.80;;;;;;5026680;28;20048;-61
2021/07/30 02:33:49;;;;;;;2.33;1.70;;;25.70;53.80;;;;;;5026584;28;20090;-62
2021/07/30 02:36:15;;;;;;;2.40;1.50;;;25.70;53.80;;;;;;5010253;28;20108;-63
2021/07/30 02:38:41;;;;;;;2.60;1.70;;;25.70;53.90;;;;;;5021182;28;20172;-63
2021/07/30 02:41:06;;;;;;;2.50;1.67;;;25.70;53.90;;;;;;5022616;28;20060;-61
2021/07/30 02:43:32;;;;;;;2.65;1.60;;;25.70;53.90;;;;;;5025428;28;20052;-64
2021/07/30 02:45:58;;;;;;;2.30;1.70;;;25.70;53.90;;;;;;5027162;28;20072;-60
2021/07/30 02:48:23;;;;;;;2.33;1.52;;;25.70;53.90;;;;;;5016027;28;20065;-60
2021/07/30 02:50:49;;;;;;;2.13;1.50;;;25.70;53.90;;;;;;5016474;28;20102;-66
2021/07/30 02:53:15;;;;;;;2.10;1.48;;;25.70;53.90;;;;;;5024393;28;20033;-65
2021/07/30 02:55:40;;;;;;;2.80;1.60;;;25.70;53.90;;;;;;5012062;28;20160;-61
2021/07/30 02:58:06;;;;;;;2.40;1.70;;;25.70;53.90;;;;;;5009310;28;20049;-63
2021/07/30 03:00:32;;;;;;;2.45;1.73;;;25.60;53.80;;;;;;5027520;28;20846;-62
2021/07/30 03:02:57;;;;;;;2.75;1.77;;;25.60;53.80;;;;;;5027944;28;20040;-60
2021/07/30 03:05:23;;;;;;;2.75;1.80;;;25.70;53.90;;;;;;5011225;28;20022;-62
2021/07/30 03:07:49;;;;;;;2.33;1.67;;;25.60;53.80;;;;;;5008100;28;20108;-62
2021/07/30 03:10:15;;;;;;;2.33;1.70;;;25.60;53.80;;;;;;5023320;28;20033;-63
2021/07/30 03:12:40;;;;;;;2.67;1.65;;;25.60;53.90;;;;;;5017736;28;20103;-62
2021/07/30 03:15:06;;;;;;;2.35;1.50;;;25.60;53.90;;;;;;5028488;28;20042;-63
2021/07/30 03:17:32;;;;;;;2.40;1.70;;;25.60;53.90;;;;;;5007946;28;20169;-61
2021/07/30 03:19:57;;;;;;;2.67;1.60;;;25.60;53.90;;;;;;5017820;28;20168;-62
2021/07/30 03:22:23;;;;;;;2.25;1.67;;;25.60;53.90;;;;;;5027258;28;20030;-61
2021/07/30 03:24:49;;;;;;;2.33;1.70;;;25.60;53.90;;;;;;5028342;28;20030;-61
2021/07/30 03:27:14;;;;;;;2.30;1.70;;;25.60;53.90;;;;;;5012029;28;20469;-64
2021/07/30 03:29:40;;;;;;;3.20;1.70;;;25.60;53.90;;;;;;5028003;28;20017;-62
2021/07/30 03:32:08;;;;;;;2.30;1.50;;;25.60;53.90;;;;;;5018945;28;20095;-66
2021/07/30 03:34:34;;;;;;;2.38;1.70;;;25.60;53.90;;;;;;5024330;28;20041;-61
2021/07/30 03:37:00;;;;;;;2.83;1.48;;;25.60;53.90;;;;;;5018656;28;20049;-62
2021/07/30 03:39:27;;;;;;;1.90;1.40;;;25.60;53.90;;;;;;5008750;28;20036;-66
2021/07/30 03:41:53;;;;;;;2.38;1.48;;;25.60;53.90;;;;;;5025788;28;20376;-64
2021/07/30 03:44:18;;;;;;;2.03;1.50;;;25.50;53.80;;;;;;5014899;28;20036;-62
2021/07/30 03:46:44;;;;;;;2.40;1.60;;;25.50;53.90;;;;;;5026538;28;20469;-61
2021/07/30 03:49:09;;;;;;;2.50;1.80;;;25.60;53.90;;;;;;5027096;28;20036;-62
2021/07/30 03:51:35;;;;;;;2.20;1.60;;;25.50;53.90;;;;;;5013140;28;20057;-61
2021/07/30 03:54:00;;;;;;;2.42;1.63;;;25.50;53.90;;;;;;5023935;28;20041;-64
2021/07/30 03:56:26;;;;;;;1.92;1.60;;;25.50;53.90;;;;;;5023091;28;20030;-62
2021/07/30 03:58:52;;;;;;;2.38;1.63;;;25.50;53.90;;;;;;5017562;28;20034;-61
2021/07/30 04:01:17;;;;;;;2.30;1.65;;;25.50;53.90;;;;;;5025856;28;20476;-62
2021/07/30 04:03:44;;;;;;;2.00;1.60;;;25.50;53.90;;;;;;5017683;28;20044;-62
2021/07/30 04:06:10;;;;;;;2.47;1.70;;;25.50;53.90;;;;;;5026387;28;20035;-62
2021/07/30 04:08:36;;;;;;;2.00;1.40;;;25.50;53.90;;;;;;5011727;28;20026;-64
2021/07/30 04:11:03;;;;;;;2.28;1.45;;;25.50;53.90;;;;;;5024034;28;20053;-61
2021/07/30 04:13:28;;;;;;;2.38;1.50;;;25.50;53.90;;;;;;5011799;28;20040;-62
2021/07/30 04:15:54;;;;;;;2.42;1.73;;;25.50;53.90;;;;;;5018094;28;20033;-62
2021/07/30 04:18:20;;;;;;;3.30;1.75;;;25.50;53.90;;;;;;5019407;28;20384;-63
2021/07/30 04:20:45;;;;;;;1.85;1.50;;;25.50;53.90;;;;;;5021899;28;20025;-62
2021/07/30 04:23:12;;;;;;;2.28;1.60;;;25.50;53.90;;;;;;5010580;28;20084;-64
2021/07/30 04:25:41;;;;;;;2.92;2.00;;;25.40;51.80;;;;;;5025304;28;20106;-61
2021/07/30 04:28:07;;;;;;;3.40;2.10;;;25.40;49.40;;;;;;5016700;28;20384;-62
2021/07/30 04:30:32;;;;;;;2.80;1.92;;;25.30;49.80;;;;;;5013526;28;20038;-64
2021/07/30 04:32:58;;;;;;;3.17;1.95;;;25.20;49.50;;;;;;5012046;28;20073;-61
2021/07/30 04:35:23;;;;;;;3.08;2.05;;;25.20;49.30;;;;;;5019273;28;20028;-64
2021/07/30 04:37:49;;;;;;;2.67;2.00;;;25.20;48.70;;;;;;5023794;28;20033;-62
2021/07/30 04:40:15;;;;;;;3.00;2.00;;;25.10;48.20;;;;;;5020369;28;20029;-61
2021/07/30 04:42:40;;;;;;;3.53;2.40;;;25.10;48.00;;;;;;5018409;28;20117;-61
2021/07/30 04:45:06;;;;;;;3.55;2.33;;;25.00;48.00;;;;;;5022924;28;20524;-63
2021/07/30 04:47:32;;;;;;;3.35;2.15;;;25.00;47.60;;;;;;5021241;28;20045;-63
2021/07/30 04:49:57;;;;;;;4.50;2.50;;;25.00;47.50;;;;;;5018622;28;20072;-61
2021/07/30 04:52:23;;;;;;;4.50;3.08;;;25.00;47.80;;;;;;5016709;28;20033;-61
2021/07/30 04:54:49;;;;;;;4.43;3.90;;;24.90;47.70;;;;;;5019533;28;20036;-63
2021/07/30 04:57:14;;;;;;;4.45;3.90;;;24.90;47.40;;;;;;5017612;28;20520;-60
2021/07/30 04:59:40;;;;;;;3.75;3.45;;;24.90;47.80;;;;;;5023759;28;20071;-62
2021/07/30 05:02:09;;;;;;;3.85;3.45;;;24.80;47.70;;;;;;5019268;28;20073;-63
2021/07/30 05:04:35;;;;;;;3.53;3.10;;;24.80;47.80;;;;;;5021461;28;20029;-65
2021/07/30 05:07:01;;;;;;;3.50;2.83;;;24.80;48.00;;;;;;5023162;28;20053;-62
2021/07/30 05:09:26;;;;;;;3.88;2.70;;;24.80;48.10;;;;;;5023070;28;20543;-62
2021/07/30 05:11:52;;;;;;;3.92;2.90;;;24.80;48.30;;;;;;5018578;28;20100;-63
2021/07/30 05:14:18;;;;;;;3.25;2.63;;;24.70;48.10;;;;;;5022592;28;20140;-60
2021/07/30 05:16:43;;;;;;;3.88;2.65;;;24.70;48.50;;;;;;5022914;28;20029;-62
2021/07/30 05:19:09;;;;;;;3.42;2.60;;;24.70;48.50;;;;;;5023500;28;20057;-60
2021/07/30 05:21:35;;;;;;;4.47;2.70;;;24.70;48.70;;;;;;5021316;28;20547;-64
2021/07/30 05:24:01;;;;;;;3.78;2.40;;;24.60;48.80;;;;;;5017427;28;20124;-63
2021/07/30 05:26:26;;;;;;;4.05;2.55;;;24.60;48.90;;;;;;5016867;28;20524;-64
2021/07/30 05:28:52;;;;;;;3.20;2.42;;;24.60;49.10;;;;;;5021634;28;20030;-60
2021/07/30 05:31:18;;;;;;;3.47;2.50;;;24.60;49.20;;;;;;5021012;28;20033;-62
2021/07/30 05:33:44;;;;;;;4.50;2.90;;;24.60;49.30;;;;;;5017202;28;20468;-62
2021/07/30 05:36:15;;;;;;;4.93;3.15;;;24.60;49.50;;;;;;5006124;28;20481;-64
2021/07/30 05:38:41;;;;;;;3.72;2.58;;;24.60;49.60;;;;;;5022126;28;20036;-62
2021/07/30 05:41:11;;;;;;;3.17;2.50;;;24.50;49.70;;;;;;5016909;28;20453;-64
2021/07/30 05:43:41;;;;;;;3.25;2.40;;;24.50;49.90;;;;;;5016886;28;20091;-65
2021/07/30 05:46:08;;;;;;;4.05;2.35;;;24.50;50.50;;;;;;5022333;28;20041;-65
2021/07/30 05:48:34;;;;;;;3.30;2.53;;;24.40;50.10;;;;;;5021702;28;20387;-63
2021/07/30 05:50:59;;;;;;;3.60;2.70;;;24.40;50.30;;;;;;5020831;28;20033;-62
2021/07/30 05:53:26;;;;;;;4.40;2.20;;;24.40;50.30;;;;;;5021873;28;20052;-63
2021/07/30 05:55:51;;;;;;;4.28;2.55;;;24.40;50.40;;;;;;5013288;28;20026;-64
2021/07/30 05:58:17;;;;;;;4.13;2.60;;;24.40;50.60;;;;;;5017358;28;20033;-61
2021/07/30 06:00:42;;;;;;;4.18;2.35;;;24.40;50.60;;;;;;5010842;28;20033;-64
2021/07/30 06:03:08;;;;;;;3.30;2.38;;;24.30;50.50;;;;;;5016590;28;20048;-60
2021/07/30 06:05:34;;;;;;;2.97;2.20;;;24.30;50.70;;;;;;5024539;28;20025;-62
2021/07/30 06:08:04;;;;;;;3.80;2.60;;;24.30;50.70;;;;;;5023170;28;20022;-63
2021/07/30 06:10:29;;;;;;;4.18;2.20;;;24.30;50.70;;;;;;5021316;28;20021;-64
2021/07/30 06:12:55;;;;;;;5.13;2.72;;;24.30;50.80;;;;;;5022291;28;20029;-62
2021/07/30 06:15:24;;;;;;;3.20;2.30;;;24.30;51.40;;;;;;5024579;28;20138;-64
2021/07/30 06:17:51;;;;;;;4.35;2.50;;;24.20;51.00;;;;;;5024350;28;20385;-63
2021/07/30 06:20:16;;;;;;;3.92;2.75;;;24.20;51.10;;;;;;5021052;28;20798;-61
2021/07/30 06:22:42;;;;;;;3.58;2.58;;;24.20;51.20;;;;;;5020580;28;20122;-62
2021/07/30 06:25:09;;;;;;;3.25;2.30;;;24.20;51.30;;;;;;5013479;28;20030;-63
2021/07/30 06:27:34;;;;;;;3.72;2.20;;;24.10;51.40;;;;;;5010086;28;20034;-62
2021/07/30 06:30:04;;;;;;;3.80;2.50;;;24.20;51.50;;;;;;5023469;28;20055;-64
2021/07/30 06:32:30;;;;;;;4.50;2.70;;;24.10;51.60;;;;;;5017170;28;20060;-61
2021/07/30 06:34:56;;;;;;;3.53;2.58;;;24.10;51.60;;;;;;5015318;28;20469;-60
2021/07/30 06:37:21;;;;;;;3.20;2.60;;;24.10;51.50;;;;;;5018998;28;20079;-62
2021/07/30 06:39:47;;;;;;;3.45;2.40;;;24.10;51.50;;;;;;5022362;28;20105;-62
2021/07/30 06:42:14;;;;;;;3.30;2.58;;;24.10;51.50;;;;;;5022134;28;20048;-66
2021/07/30 06:44:39;;;;;;;3.30;2.60;;;24.00;51.60;;;;;;5020289;28;20115;-63
2021/07/30 06:47:05;;;;;;;3.55;2.70;;;24.00;51.80;;;;;;5014360;28;20068;-61
2021/07/30 06:49:34;;;;;;;4.10;3.05;;;24.00;52.00;;;;;;5014364;28;20022;-60
2021/07/30 06:52:00;;;;;;;3.97;2.70;;;23.90;51.70;;;;;;5019435;28;20056;-61
2021/07/30 06:54:33;;;;;;;4.35;2.83;;;23.90;51.90;;;;;;5020745;28;20033;-61
2021/07/30 06:56:58;;;;;;;3.60;2.55;;;23.90;52.20;;;;;;5014298;28;20036;-64
2021/07/30 06:59:24;;;;;;;3.47;2.55;;;23.90;52.30;;;;;;5024985;28;20761;-61
2021/07/30 07:01:49;;;;;;;3.53;2.80;;;23.90;52.30;;;;;;5024264;28;20325;-63
2021/07/30 07:04:15;;;;;;;7.78;3.22;;;23.90;52.20;;;;;;5025822;28;20037;-63
2021/07/30 07:06:41;;;;;;;3.50;2.83;;;23.90;52.20;;;;;;5021705;28;20072;-63
2021/07/30 07:09:06;;;;;;;3.85;2.90;;;23.90;52.10;;;;;;5010373;28;20029;-63
2021/07/30 07:11:32;;;;;;;4.05;2.88;;;23.90;52.10;;;;;;5019338;28;20091;-62
2021/07/30 07:13:58;;;;;;;3.45;2.70;;;23.90;52.00;;;;;;5022314;28;20052;-62
2021/07/30 07:16:24;;;;;;;4.35;2.70;;;23.90;52.00;;;;;;5022230;28;20116;-60
2021/07/30 07:18:49;;;;;;;3.55;2.70;;;24.00;52.00;;;;;;5025979;28;20117;-62
2021/07/30 07:21:15;;;;;;;3.28;2.50;;;24.00;52.00;;;;;;5013652;28;20377;-62
2021/07/30 07:23:42;;;;;;;3.38;2.75;;;24.00;52.00;;;;;;5025525;28;20041;-61
2021/07/30 07:26:08;;;;;;;4.75;2.60;;;24.00;52.00;;;;;;5024810;28;20403;-65
2021/07/30 07:28:34;;;;;;;3.97;2.60;;;24.10;52.00;;;;;;5019838;28;20523;-63
2021/07/30 07:30:59;;;;;;;3.88;2.58;;;24.10;52.00;;;;;;5023576;28;20089;-63
2021/07/30 07:33:25;;;;;;;2.95;2.53;;;24.10;52.00;;;;;;5006474;28;20084;-64
2021/07/30 07:35:53;;;;;;;3.38;2.47;;;24.10;52.00;;;;;;5017419;28;20138;-61
2021/07/30 07:38:19;;;;;;;3.40;2.55;;;24.10;52.00;;;;;;5023031;28;20129;-62
2021/07/30 07:40:48;;;;;;;3.00;2.53;;;24.10;52.00;;;;;;5010549;28;20635;-62
2021/07/30 07:43:15;;;;;;;3.20;2.60;;;24.10;52.10;;;;;;5023108;28;20070;-63
2021/07/30 07:45:41;;;;;;;3.33;2.30;;;24.20;52.10;;;;;;5016866;28;20025;-61
2021/07/30 07:48:07;;;;;;;2.83;2.40;;;24.10;52.10;;;;;;5011937;28;20034;-65
2021/07/30 07:50:32;;;;;;;3.92;2.42;;;24.20;52.10;;;;;;5022150;28;20029;-61
2021/07/30 07:52:58;;;;;;;3.35;2.47;;;24.10;52.10;;;;;;5015750;28;20022;-64
2021/07/30 07:55:24;;;;;;;3.55;2.33;;;24.10;52.10;;;;;;5011403;28;20029;-61
2021/07/30 07:57:49;;;;;;;3.40;2.58;;;24.20;52.10;;;;;;5013429;28;20124;-62
2021/07/30 08:00:15;;;;;;;3.22;2.33;;;24.10;52.10;;;;;;5021485;28;20064;-62
2021/07/30 08:02:41;;;;;;;3.17;2.60;;;24.20;52.20;;;;;;5022380;28;20417;-63
2021/07/30 08:05:07;;;;;;;3.85;2.38;;;24.20;52.20;;;;;;5020651;28;20033;-60
2021/07/30 08:07:33;;;;;;;3.15;2.38;;;24.20;52.20;;;;;;5008261;28;20096;-62
2021/07/30 08:09:59;;;;;;;3.17;2.42;;;24.20;52.20;;;;;;5018454;28;20366;-62
2021/07/30 08:12:25;;;;;;;2.97;2.17;;;24.20;52.30;;;;;;5008855;28;20120;-61
2021/07/30 08:14:50;;;;;;;3.20;2.20;;;24.20;52.20;;;;;;5024727;28;20128;-64
2021/07/30 08:17:16;;;;;;;3.08;2.10;;;24.20;52.20;;;;;;5024320;28;20112;-62
2021/07/30 08:19:42;;;;;;;3.38;2.38;;;24.20;52.20;;;;;;5017880;28;20025;-67
2021/07/30 08:22:08;;;;;;;3.20;2.40;;;24.20;52.20;;;;;;5018710;28;20030;-61
2021/07/30 08:24:33;;;;;;;3.15;2.30;;;24.20;52.20;;;;;;5013354;28;20096;-61
2021/07/30 08:27:04;;;;;;;3.50;2.22;;;24.20;52.30;;;;;;5013504;28;20108;-62
2021/07/30 08:29:30;;;;;;;3.00;2.40;;;24.20;52.30;;;;;;5022917;28;20029;-62
2021/07/30 08:31:55;;;;;;;2.90;2.38;;;24.20;52.30;;;;;;5008714;28;20038;-61
2021/07/30 08:34:21;;;;;;;3.58;2.20;;;24.20;52.30;;;;;;5006237;28;20057;-63
2021/07/30 08:36:47;;;;;;;3.20;2.50;;;24.20;52.30;;;;;;5018644;28;20484;-62
2021/07/30 08:39:16;;;;;;;2.70;2.10;;;24.20;52.30;;;;;;5019123;28;20130;-64
2021/07/30 08:41:43;;;;;;;2.80;2.30;;;24.30;52.40;;;;;;5013196;28;20033;-65
2021/07/30 08:44:10;;;;;;;3.28;2.40;;;24.30;52.40;;;;;;5017590;28;20102;-62
2021/07/30 08:46:36;;;;;;;2.83;2.10;;;24.30;52.40;;;;;;5024495;28;20068;-62
2021/07/30 08:49:02;;;;;;;3.33;2.50;;;24.30;52.40;;;;;;5016878;28;20080;-64
2021/07/30 08:51:32;;;;;;;3.03;2.33;;;24.30;52.90;;;;;;5021969;28;20021;-62
2021/07/30 08:53:58;;;;;;;3.08;2.38;;;24.30;52.40;;;;;;5024703;28;20033;-62
2021/07/30 08:56:23;;;;;;;2.85;2.10;;;24.30;52.40;;;;;;5023845;28;20644;-62
2021/07/30 08:58:49;;;;;;;2.95;2.10;;;24.30;52.40;;;;;;5014210;28;20096;-62
2021/07/30 09:01:15;;;;;;;3.67;2.20;;;24.30;52.40;;;;;;5018615;28;20041;-64
2021/07/30 09:03:45;;;;;;;3.00;2.22;;;24.30;52.50;;;;;;5013312;28;20685;-66
2021/07/30 09:06:18;;;;;;;2.92;2.20;;;24.30;52.40;;;;;;5005422;28;20124;-61
2021/07/30 09:08:46;;;;;;;2.70;2.15;;;24.30;52.50;;;;;;5013817;28;20026;-62
2021/07/30 09:11:27;;;;;;;2.70;2.20;;;24.30;52.40;;;;;;5017509;28;20025;-63
2021/07/30 09:13:53;;;;;;;3.95;2.00;;;24.30;52.50;;;;;;5015105;28;20030;-62
2021/07/30 09:16:18;;;;;;;2.72;2.10;;;24.30;52.50;;;;;;5012161;28;20034;-62
2021/07/30 09:18:45;;;;;;;2.88;2.40;;;24.30;52.50;;;;;;5023415;28;20029;-63
2021/07/30 09:21:24;;;;;;;2.63;2.10;;;24.30;52.50;;;;;;5024878;28;20128;-63
2021/07/30 09:24:10;;;;;;;2.80;2.17;;;24.30;52.50;;;;;;5005512;28;20523;-61
2021/07/30 09:26:53;;;;;;;3.05;2.20;;;24.30;52.50;;;;;;5017068;28;20033;-61
2021/07/30 09:29:26;;;;;;;3.22;2.38;;;24.30;52.60;;;;;;5022195;28;20021;-60
2021/07/30 09:32:03;;;;;;;2.60;2.00;;;24.40;52.60;;;;;;5020435;28;20041;-65
2021/07/30 09:34:34;;;;;;;3.08;2.17;;;24.30;52.60;;;;;;5015072;28;20024;-62
2021/07/30 09:37:04;;;;;;;2.70;2.20;;;24.40;53.10;;;;;;5026675;28;20124;-61
2021/07/30 09:39:32;;;;;;;2.58;2.17;;;24.40;52.60;;;;;;5029007;28;20037;-63
2021/07/30 09:42:05;;;;;;;2.92;2.30;;;24.40;52.60;;;;;;5014469;28;20033;-65
2021/07/30 09:44:33;;;;;;;2.90;2.22;;;24.40;52.60;;;;;;5023766;28;20116;-62
2021/07/30 09:47:10;;;;;;;2.75;2.20;;;24.40;52.60;;;;;;5023730;28;20038;-60
2021/07/30 09:49:45;;;;;;;2.63;2.00;;;24.40;52.60;;;;;;5020079;28;20554;-63
2021/07/30 09:52:25;;;;;;;3.17;2.30;;;24.40;52.60;;;;;;5019851;28;20409;-62
2021/07/30 09:54:52;;;;;;;2.75;2.17;;;24.40;52.60;;;;;;5017575;28;20021;-62
2021/07/30 09:57:26;;;;;;;3.15;2.20;;;24.50;52.60;;;;;;5017634;28;20132;-66
2021/07/30 09:59:59;;;;;;;2.50;1.90;;;24.40;52.60;;;;;;5014081;28;20044;-63
2021/07/30 10:02:27;;;;;;;2.78;2.17;;;24.40;52.60;;;;;;5011157;28;20048;-61
2021/07/30 10:04:53;;;;;;;2.75;1.92;;;24.50;52.60;;;;;;5011703;28;20048;-64
2021/07/30 10:07:23;;;;;;;2.88;2.10;;;24.50;52.70;;;;;;5021481;28;20034;-63
2021/07/30 10:12:46;;;;;;;2.90;2.00;;;24.50;52.60;;;;;;5019219;28;20033;-63
2021/07/30 10:15:12;;;;;;;3.30;2.03;;;24.50;52.70;;;;;;5011812;28;20088;-63
2021/07/30 10:17:55;;;;;;;2.95;2.30;;;24.50;52.70;;;;;;5024428;28;20029;-65
2021/07/30 10:20:23;;;;;;;2.63;1.90;;;24.50;52.70;;;;;;5016363;28;20143;-64
2021/07/30 10:23:07;;;;;;;3.65;2.25;;;24.50;52.70;;;;;;5015237;28;20021;-61
2021/07/30 10:25:35;;;;;;;4.03;2.08;;;24.60;52.80;;;;;;5015163;28;20032;-63
2021/07/30 10:28:26;;;;;;;2.70;1.88;;;24.60;52.80;;;;;;5012964;28;20038;-63
2021/07/30 10:30:58;;;;;;;3.58;2.03;;;24.60;52.80;;;;;;5024234;28;20034;-63
2021/07/30 10:33:30;;;;;;;3.70;2.20;;;24.60;52.80;;;;;;5024090;28;20183;-62
2021/07/30 10:35:57;;;;;;;2.90;2.17;;;24.60;52.80;;;;;;5023055;28;20025;-61
2021/07/30 10:38:24;;;;;;;3.35;1.90;;;24.60;52.80;;;;;;5022754;28;20026;-63
2021/07/30 10:40:58;;;;;;;3.10;2.10;;;24.60;52.80;;;;;;5021750;28;20053;-62
2021/07/30 10:43:27;;;;;;;4.93;2.10;;;24.60;52.80;;;;;;5016879;28;20037;-61
2021/07/30 10:46:20;;;;;;;3.17;2.00;;;24.60;52.80;;;;;;5017462;28;20068;-62
2021/07/30 10:48:53;;;;;;;3.25;1.98;;;24.60;52.80;;;;;;5011492;28;20127;-65
2021/07/30 10:51:18;;;;;;;3.60;2.13;;;24.70;52.90;;;;;;5014969;28;20025;-64
2021/07/30 10:54:03;;;;;;;3.17;1.95;;;24.60;52.80;;;;;;5014095;28;20778;-62
2021/07/30 10:56:29;;;;;;;3.38;1.90;;;24.70;52.80;;;;;;5017400;28;20088;-64
2021/07/30 10:58:58;;;;;;;2.83;2.20;;;24.70;52.80;;;;;;5018602;28;20030;-63
2021/07/30 11:01:43;;;;;;;2.80;1.95;;;24.70;52.90;;;;;;5021808;28;20036;-63
2021/07/30 11:04:10;;;;;;;3.13;2.15;;;24.70;52.80;;;;;;5022517;28;20084;-64
2021/07/30 11:06:42;;;;;;;4.28;1.90;;;24.70;52.90;;;;;;5014371;28;20083;-64
2021/07/30 11:09:18;;;;;;;3.20;1.90;;;24.80;53.10;;;;;;5017552;28;20125;-65
2021/07/30 11:12:04;;;;;;;3.97;2.10;;;24.70;52.90;;;;;;5023656;28;20079;-63
2021/07/30 11:14:38;;;;;;;2.38;1.70;;;24.70;52.90;;;;;;5003408;28;20556;-65
2021/07/30 11:17:06;;;;;;;3.92;1.67;;;24.70;52.80;;;;;;5012077;28;20124;-64
2021/07/30 11:19:39;;;;;;;2.72;2.05;;;24.80;52.90;;;;;;5009625;28;20361;-64
2021/07/30 11:22:12;;;;;;;2.72;1.67;;;24.80;53.00;;;;;;5015387;28;20029;-64
2021/07/30 11:24:45;;;;;;;2.85;1.85;;;24.80;53.00;;;;;;5011499;28;20206;-65
2021/07/30 11:27:13;;;;;;;2.35;1.77;;;24.80;53.00;;;;;;5016491;28;20156;-66
2021/07/30 11:29:47;;;;;;;3.05;1.90;;;24.80;53.00;;;;;;5020155;28;20025;-62
2021/07/30 11:32:15;;;;;;;2.97;1.70;;;24.80;53.00;;;;;;5022223;28;20042;-63
2021/07/30 11:34:45;;;;;;;2.58;1.80;;;24.80;53.60;;;;;;5022581;28;20033;-62
2021/07/30 11:37:13;;;;;;;2.33;1.75;;;24.80;53.10;;;;;;5021614;28;20370;-63
2021/07/30 11:39:49;;;;;;;2.60;1.77;;;24.80;53.10;;;;;;5010721;28;20210;-64
2021/07/30 11:42:26;;;;;;;2.05;1.67;;;24.80;53.10;;;;;;5020319;28;20033;-64
2021/07/30 11:44:57;;;;;;;2.75;1.67;;;24.80;53.20;;;;;;5024104;28;20021;-63
2021/07/30 11:47:23;;;;;;;2.70;1.88;;;24.90;53.30;;;;;;5017403;28;20380;-62
2021/07/30 11:50:03;;;;;;;3.22;1.88;;;24.90;53.50;;;;;;5007413;28;20036;-66
2021/07/30 11:52:30;;;;;;;2.50;1.70;;;24.90;53.50;;;;;;5020968;28;20134;-67
2021/07/30 11:55:13;;;;;;;2.60;1.80;;;24.90;53.80;;;;;;5018496;28;20075;-62
2021/07/30 11:57:39;;;;;;;3.05;1.95;;;24.90;53.80;;;;;;5015578;28;20101;-68
2021/07/30 12:00:05;;;;;;;2.50;1.80;;;24.90;54.00;;;;;;5013426;28;20021;-63
2021/07/30 12:02:31;;;;;;;3.28;1.98;;;25.00;54.00;;;;;;5014158;28;20038;-62
2021/07/30 12:04:58;;;;;;;2.80;1.80;;;25.00;53.50;;;;;;5012329;28;20030;-61
2021/07/30 12:07:39;;;;;;;2.40;1.80;;;25.00;53.50;;;;;;5019022;28;20046;-62
2021/07/30 12:10:07;;;;;;;2.38;1.63;;;25.00;53.50;;;;;;5019839;28;20376;-64
2021/07/30 12:12:38;;;;;;;3.00;1.90;;;25.00;53.60;;;;;;5022062;28;20979;-64
2021/07/30 12:15:04;;;;;;;2.60;1.80;;;25.00;53.60;;;;;;5032909;28;20033;-61
2021/07/30 12:17:31;;;;;;;2.78;1.85;;;25.00;53.60;;;;;;5020236;28;20036;-63
2021/07/30 12:20:05;;;;;;;2.65;1.88;;;25.10;53.60;;;;;;5015177;28;20068;-62
2021/07/30 12:22:34;;;;;;;3.17;1.80;;;25.10;53.70;;;;;;5019702;28;20596;-63
2021/07/30 12:24:59;;;;;;;2.83;1.90;;;25.10;53.60;;;;;;5022192;28;20449;-64
2021/07/30 12:27:25;;;;;;;3.70;1.90;;;25.10;53.60;;;;;;5017306;28;20036;-62
2021/07/30 12:29:51;;;;;;;2.85;2.08;;;25.10;53.60;;;;;;5020203;28;20080;-64
2021/07/30 12:32:20;;;;;;;2.58;1.88;;;25.10;53.70;;;;;;5010446;28;20477;-62
2021/07/30 12:35:02;;;;;;;2.53;1.70;;;25.10;53.60;;;;;;5019552;28;20045;-65
2021/07/30 12:37:30;;;;;;;2.75;1.80;;;25.10;53.60;;;;;;5021936;28;20029;-64
2021/07/30 12:40:05;;;;;;;3.58;2.10;;;25.10;53.60;;;;;;5008970;28;20197;-61
2021/07/30 12:42:34;;;;;;;2.72;1.95;;;25.10;53.60;;;;;;5019590;28;20052;-61
2021/07/30 12:45:10;;;;;;;2.40;1.90;;;25.20;53.60;;;;;;5022134;28;20045;-65
2021/07/30 12:47:47;;;;;;;2.47;1.75;;;25.20;53.60;;;;;;5017154;28;20100;-61
2021/07/30 12:50:37;;;;;;;2.50;1.77;;;25.20;53.60;;;;;;5019311;28;20544;-64
2021/07/30 12:53:17;;;;;;;2.60;1.75;;;25.20;54.00;;;;;;5013755;28;20057;-65
2021/07/30 12:56:07;;;;;;;3.15;1.70;;;25.20;54.10;;;;;;5018337;28;20022;-63